Time;durP1;ratioP1;P1;durP2;ratioP2;P2;SDS_P1;SDS_P2;PMS_P1;PMS_P2;Temp;Humidity;BMP_temperature;BMP_pressure;BME280_temperature;BME280_humidity;BME280_pressure;Samples;Min_cycle;Max_cycle;Signal;HPM_P1;HPM_P2
2023/09/09 00:01:54;;;;;;;;;;;;;;;-144.99;94.31;52172.94;4991605;28;19933;-66
2023/09/09 00:04:20;;;;;;;;;;;;;;;-144.99;94.41;52170.91;5002170;28;19956;-66
2023/09/09 00:06:47;;;;;;;;;;;;;;;-144.99;94.51;52146.44;4995717;28;20034;-65
2023/09/09 00:09:15;;;;;;;;;;;;;;;-144.99;94.67;52183.13;4993670;28;19995;-64
2023/09/09 00:11:41;;;;;;;;;;;;;;;-144.99;94.91;52183.13;4991668;28;20051;-64
2023/09/09 00:14:09;;;;;;;;;;;;;;;-144.99;94.95;52174.97;4990142;28;20325;-64
2023/09/09 00:16:35;;;;;;;;;;;;;;;-144.99;95.10;52172.94;4990700;28;19945;-65
2023/09/09 00:19:02;;;;;;;;;;;;;;;-144.99;95.19;52219.81;4981240;28;19958;-63
2023/09/09 00:21:29;;;;;;;;;;;;;;;-144.99;95.40;52154.59;4982339;28;20429;-62
2023/09/09 00:23:56;;;;;;;;;;;;;;;-144.99;95.61;52191.28;4983215;28;20298;-63
2023/09/09 00:26:22;;;;;;;;;;;;;;;-144.99;95.98;52195.34;4981151;28;19944;-62
2023/09/09 00:28:49;;;;;;;;;;;;;;;-144.99;96.02;52195.34;4984784;28;19944;-62
2023/09/09 00:31:17;;;;;;;;;;;;;;;-144.99;96.04;52203.50;4993769;28;19984;-63
2023/09/09 00:33:43;;;;;;;;;;;;;;;-144.99;96.88;52166.81;5003612;28;19961;-64
2023/09/09 00:36:11;;;;;;;;;;;;;;;-144.99;97.24;52183.13;4993019;28;19979;-62
2023/09/09 00:38:38;;;;;;;;;;;;;;;-144.99;97.20;52203.50;4992328;28;19940;-63
2023/09/09 00:41:11;;;;;;;;;;;;;;;-144.99;97.15;52179.06;4987078;28;20021;-62
2023/09/09 00:43:39;;;;;;;;;;;;;;;-144.99;97.50;52191.28;4977366;28;19958;-64
2023/09/09 00:46:05;;;;;;;;;;;;;;;-144.99;97.45;52170.91;4978796;28;20393;-64
2023/09/09 00:48:33;;;;;;;;;;;;;;;-144.99;97.55;52166.81;4985401;28;19977;-64
2023/09/09 00:51:00;;;;;;;;;;;;;;;-144.99;97.76;52207.59;4986509;28;20006;-64
2023/09/09 00:53:26;;;;;;;;;;;;;;;-144.99;97.97;52170.91;4987990;28;20381;-64
2023/09/09 00:55:53;;;;;;;;;;;;;;;-144.99;98.19;52187.19;4989679;28;19949;-64
2023/09/09 00:58:22;;;;;;;;;;;;;;;-144.99;98.33;52189.25;4994882;28;20608;-64
2023/09/09 01:00:49;;;;;;;;;;;;;;;-144.99;98.44;52195.34;4992153;28;20055;-64
2023/09/09 01:03:15;;;;;;;;;;;;;;;-144.99;98.86;52183.13;4990335;28;20383;-65
2023/09/09 01:05:43;;;;;;;;;;;;;;;-144.99;98.75;52168.84;4988030;28;20283;-66
2023/09/09 01:08:09;;;;;;;;;;;;;;;-144.99;98.90;52146.44;4995605;28;19969;-66
2023/09/09 01:10:36;;;;;;;;;;;;;;;-144.99;98.82;52189.25;4988546;28;20006;-66
2023/09/09 01:13:03;;;;;;;;;;;;;;;-144.99;99.01;52195.34;4990470;28;20008;-63
2023/09/09 01:15:31;;;;;;;;;;;;;;;-144.99;99.10;52201.47;4990837;28;19942;-64
2023/09/09 01:17:57;;;;;;;;;;;;;;;-144.99;99.25;52199.44;4983378;28;19981;-64
2023/09/09 01:20:25;;;;;;;;;;;;;;;-144.99;99.43;52191.28;4984946;28;20039;-62
2023/09/09 01:22:53;;;;;;;;;;;;;;;-144.99;99.62;52179.06;4988683;28;20048;-63
2023/09/09 01:25:19;;;;;;;;;;;;;;;-144.99;99.81;52211.66;4990073;28;20448;-63
2023/09/09 01:27:46;;;;;;;;;;;;;;;-144.99;99.95;52183.13;4984825;28;20421;-62
2023/09/09 01:30:12;;;;;;;;;;;;;;;-144.99;100.00;52217.78;4982052;28;20028;-60
2023/09/09 01:32:39;;;;;;;;;;;;;;;-144.99;100.00;52166.81;4990330;28;20082;-60
2023/09/09 01:35:06;;;;;;;;;;;;;;;-144.99;100.00;52183.13;4988516;28;20444;-60
2023/09/09 01:37:33;;;;;;;;;;;;;;;-144.99;100.00;52187.19;4989873;28;19961;-61
2023/09/09 01:40:09;;;;;;;;;;;;;;;-144.99;100.00;52191.28;4983482;28;20027;-61
2023/09/09 01:42:36;;;;;;;;;;;;;;;-144.99;100.00;52183.13;4980682;28;19956;-61
2023/09/09 01:45:03;;;;;;;;;;;;;;;-144.99;100.00;52187.19;4983118;28;19994;-61
2023/09/09 01:47:30;;;;;;;;;;;;;;;-144.99;100.00;52195.34;4979762;28;20040;-62
2023/09/09 01:49:56;;;;;;;;;;;;;;;-144.99;100.00;52203.50;4988908;28;20014;-61
2023/09/09 01:52:23;;;;;;;;;;;;;;;-144.99;100.00;52179.06;4989981;28;20470;-61
2023/09/09 01:54:49;;;;;;;;;;;;;;;-144.99;100.00;52160.72;4989756;28;19946;-62
2023/09/09 01:57:19;;;;;;;;;;;;;;;-144.99;100.00;52195.34;4978877;28;19977;-62
2023/09/09 01:59:45;;;;;;;;;;;;;;;-144.99;100.00;52170.91;4981327;28;19968;-62
2023/09/09 02:02:15;;;;;;;;;;;;;;;-144.99;100.00;52195.34;4972854;28;20497;-64
2023/09/09 02:04:42;;;;;;;;;;;;;;;-144.99;100.00;52189.25;4989558;28;19998;-63
2023/09/09 02:07:08;;;;;;;;;;;;;;;-144.99;100.00;52195.34;4981883;28;20022;-64
2023/09/09 02:09:35;;;;;;;;;;;;;;;-144.99;100.00;52203.50;4989191;28;19993;-63
2023/09/09 02:12:03;;;;;;;;;;;;;;;-144.99;100.00;52195.34;4992756;28;20003;-63
2023/09/09 02:14:31;;;;;;;;;;;;;;;-144.99;100.00;52168.84;4995770;28;19930;-63
2023/09/09 02:16:57;;;;;;;;;;;;;;;-144.99;100.00;52195.34;4986108;28;20011;-62
2023/09/09 02:19:24;;;;;;;;;;;;;;;-144.99;100.00;52195.34;4990977;28;19977;-61
2023/09/09 02:21:51;;;;;;;;;;;;;;;-144.99;100.00;52211.66;4978696;28;19958;-61
2023/09/09 02:24:17;;;;;;;;;;;;;;;-144.99;100.00;52199.44;4990703;28;20010;-62
2023/09/09 02:26:44;;;;;;;;;;;;;;;-144.99;100.00;52191.28;4982890;28;20236;-60
2023/09/09 02:29:10;;;;;;;;;;;;;;;-144.99;100.00;52199.44;4982386;28;20006;-64
2023/09/09 02:31:38;;;;;;;;;;;;;;;-144.99;100.00;52170.91;4990125;28;19951;-67
2023/09/09 02:34:05;;;;;;;;;;;;;;;-144.99;100.00;52199.44;5002241;28;20027;-67
2023/09/09 02:36:31;;;;;;;;;;;;;;;-144.99;100.00;52191.28;4999869;28;20003;-67
2023/09/09 02:38:58;;;;;;;;;;;;;;;-144.99;100.00;52215.75;5002345;28;19942;-67
2023/09/09 02:41:24;;;;;;;;;;;;;;;-144.99;100.00;52195.34;4993751;28;19999;-61
2023/09/09 02:43:50;;;;;;;;;;;;;;;-144.99;100.00;52207.59;4984043;28;19952;-57
2023/09/09 02:46:17;;;;;;;;;;;;;;;-144.99;100.00;52199.44;4992510;28;20068;-58
2023/09/09 02:48:45;;;;;;;;;;;;;;;-144.99;100.00;52195.34;4990976;28;19942;-58
2023/09/09 02:51:11;;;;;;;;;;;;;;;-144.99;100.00;52203.50;4987706;28;19944;-58
2023/09/09 02:53:38;;;;;;;;;;;;;;;-144.99;100.00;52227.97;4984116;28;19995;-58
2023/09/09 02:56:04;;;;;;;;;;;;;;;-144.99;100.00;52238.16;4991071;28;19944;-58
2023/09/09 02:58:31;;;;;;;;;;;;;;;-144.99;100.00;52195.34;4984947;28;20021;-58
2023/09/09 03:01:03;;;;;;;;;;;;;;;-144.99;100.00;52195.34;4988442;28;20062;-59
2023/09/09 03:03:31;;;;;;;;;;;;;;;-144.99;100.00;52211.66;4984859;28;20059;-60
2023/09/09 03:05:59;;;;;;;;;;;;;;;-144.99;100.00;52191.28;4983658;28;19951;-59
2023/09/09 03:08:25;;;;;;;;;;;;;;;-144.99;100.00;52213.69;4991173;28;19949;-60
2023/09/09 03:10:53;;;;;;;;;;;;;;;-144.99;100.00;52187.19;4987735;28;19960;-58
2023/09/09 03:13:19;;;;;;;;;;;;;;;-144.99;100.00;52174.97;4984631;28;19968;-58
2023/09/09 03:15:46;;;;;;;;;;;;;;;-144.99;100.00;52211.66;4983843;28;20004;-59
2023/09/09 03:18:12;;;;;;;;;;;;;;;-144.99;100.00;52185.16;4989983;28;20051;-59
2023/09/09 03:20:39;;;;;;;;;;;;;;;-144.99;100.00;52195.34;4991086;28;19944;-59
2023/09/09 03:23:07;;;;;;;;;;;;;;;-144.99;100.00;52191.28;4998550;28;20015;-59
2023/09/09 03:25:33;;;;;;;;;;;;;;;-144.99;100.00;52219.81;5001248;28;19963;-58
2023/09/09 03:28:00;;;;;;;;;;;;;;;-144.99;100.00;52252.44;4993128;28;20049;-58
2023/09/09 03:30:26;;;;;;;;;;;;;;;-144.99;100.00;52162.75;4992324;28;19969;-62
2023/09/09 03:32:53;;;;;;;;;;;;;;;-144.99;100.00;52203.50;4985637;28;19956;-63
2023/09/09 03:35:19;;;;;;;;;;;;;;;-144.99;100.00;52211.66;4997398;28;19992;-61
2023/09/09 03:37:45;;;;;;;;;;;;;;;-144.99;100.00;52217.78;4993737;28;19974;-60
2023/09/09 03:40:13;;;;;;;;;;;;;;;-144.99;100.00;52219.81;4991575;28;20341;-60
2023/09/09 03:42:40;;;;;;;;;;;;;;;-144.99;100.00;52223.88;4983833;28;20011;-62
2023/09/09 03:45:07;;;;;;;;;;;;;;;-144.99;100.00;52201.47;4992807;28;19947;-61
2023/09/09 03:47:34;;;;;;;;;;;;;;;-144.99;100.00;52195.34;4987361;28;19945;-61
2023/09/09 03:50:00;;;;;;;;;;;;;;;-144.99;100.00;52183.13;4993264;28;19959;-61
2023/09/09 03:52:27;;;;;;;;;;;;;;;-144.99;100.00;52203.50;4991752;28;19995;-61
2023/09/09 03:54:54;;;;;;;;;;;;;;;-144.99;100.00;52189.25;4989095;28;19979;-60
2023/09/09 03:57:22;;;;;;;;;;;;;;;-144.99;100.00;52215.75;4993405;28;19990;-61
2023/09/09 03:59:48;;;;;;;;;;;;;;;-144.99;100.00;52183.13;4993478;28;19926;-60
2023/09/09 04:02:15;;;;;;;;;;;;;;;-144.99;100.00;52166.81;4987539;28;19926;-60
2023/09/09 04:04:41;;;;;;;;;;;;;;;-144.99;100.00;52197.41;4987597;28;19963;-68
2023/09/09 04:07:08;;;;;;;;;;;;;;;-144.99;100.00;52183.13;4999818;28;19926;-68
2023/09/09 04:09:40;;;;;;;;;;;;;;;-144.99;100.00;52203.50;5001102;28;19944;-68
2023/09/09 04:12:07;;;;;;;;;;;;;;;-144.99;100.00;52219.81;4991284;28;20266;-70
2023/09/09 04:14:35;;;;;;;;;;;;;;;-144.99;100.00;52191.28;5008670;28;19945;-69
2023/09/09 04:17:02;;;;;;;;;;;;;;;-144.99;100.00;52207.59;4999943;28;19929;-66
2023/09/09 04:19:29;;;;;;;;;;;;;;;-144.99;100.00;52199.44;5000117;28;20023;-65
2023/09/09 04:21:55;;;;;;;;;;;;;;;-144.99;100.00;52199.44;4985464;28;20006;-65
2023/09/09 04:24:22;;;;;;;;;;;;;;;-144.99;100.00;52232.03;4994910;28;19926;-66
2023/09/09 04:26:48;;;;;;;;;;;;;;;-144.99;100.00;52238.16;4992717;28;20015;-66
2023/09/09 04:29:15;;;;;;;;;;;;;;;-144.99;100.00;52217.78;4980465;28;19927;-66
2023/09/09 04:31:43;;;;;;;;;;;;;;;-144.99;100.00;52215.75;4979330;28;20013;-66
2023/09/09 04:34:11;;;;;;;;;;;;;;;-144.99;100.00;52221.84;4986728;28;19960;-65
2023/09/09 04:36:38;;;;;;;;;;;;;;;-144.99;100.00;52195.34;4980211;28;20050;-66
2023/09/09 04:39:04;;;;;;;;;;;;;;;-144.99;100.00;52203.50;4989288;28;19948;-65
2023/09/09 04:41:31;;;;;;;;;;;;;;;-144.99;100.00;52236.13;4980907;28;19944;-65
2023/09/09 04:43:57;;;;;;;;;;;;;;;-144.99;100.00;52260.56;4983165;28;20240;-65
2023/09/09 04:46:24;;;;;;;;;;;;;;;-144.99;100.00;52244.28;4984426;28;19940;-65
2023/09/09 04:48:54;;;;;;;;;;;;;;;-144.99;100.00;52232.03;4990315;28;20239;-65
2023/09/09 04:51:20;;;;;;;;;;;;;;;-144.99;100.00;52203.50;4985911;28;20189;-63
2023/09/09 04:53:47;;;;;;;;;;;;;;;-144.99;100.00;52217.78;4982497;28;19965;-64
2023/09/09 04:56:13;;;;;;;;;;;;;;;-144.99;100.00;52207.59;4988158;28;19965;-64
2023/09/09 04:58:40;;;;;;;;;;;;;;;-144.99;100.00;52195.34;4982482;28;20029;-64
2023/09/09 05:01:06;;;;;;;;;;;;;;;-144.99;100.00;52195.34;4984065;28;19988;-64
2023/09/09 05:03:32;;;;;;;;;;;;;;;-144.99;100.00;52207.59;4989891;28;20507;-62
2023/09/09 05:06:00;;;;;;;;;;;;;;;-144.99;100.00;52207.59;4982862;28;19960;-63
2023/09/09 05:08:27;;;;;;;;;;;;;;;-144.99;100.00;52232.03;4983503;28;20066;-62
2023/09/09 05:10:53;;;;;;;;;;;;;;;-144.99;100.00;52193.31;4985322;28;19926;-63
2023/09/09 05:13:20;;;;;;;;;;;;;;;-144.99;100.00;52232.03;4989312;28;20349;-61
2023/09/09 05:15:47;;;;;;;;;;;;;;;-144.99;100.00;52170.91;4976972;28;19936;-62
2023/09/09 05:18:13;;;;;;;;;;;;;;;-144.99;100.00;52185.16;4989882;28;19965;-61
2023/09/09 05:20:40;;;;;;;;;;;;;;;-144.99;100.00;52211.66;4986919;28;20357;-64
2023/09/09 05:23:07;;;;;;;;;;;;;;;-144.99;100.00;52193.31;4986089;28;20187;-67
2023/09/09 05:25:34;;;;;;;;;;;;;;;-144.99;100.00;52197.41;5009939;23;19999;-65
2023/09/09 05:28:01;;;;;;;;;;;;;;;-144.99;100.00;52199.44;4996584;28;19929;-64
2023/09/09 05:30:27;;;;;;;;;;;;;;;-144.99;100.00;52181.09;4990775;28;20014;-65
2023/09/09 05:32:54;;;;;;;;;;;;;;;-144.99;100.00;52170.91;4988487;28;19929;-65
2023/09/09 05:35:20;;;;;;;;;;;;;;;-144.99;100.00;52223.88;4989756;28;19995;-65
2023/09/09 05:37:47;;;;;;;;;;;;;;;-144.99;100.00;52191.28;4989812;28;20311;-65
2023/09/09 05:40:14;;;;;;;;;;;;;;;-144.99;100.00;52191.28;4989661;28;20034;-66
2023/09/09 05:42:41;;;;;;;;;;;;;;;-144.99;100.00;52134.22;4989115;28;20447;-66
2023/09/09 05:45:09;;;;;;;;;;;;;;;-144.99;100.00;52185.16;4988100;28;20457;-66
2023/09/09 05:47:36;;;;;;;;;;;;;;;-144.99;100.00;52179.06;4989356;28;19926;-65
2023/09/09 05:50:02;;;;;;;;;;;;;;;-144.99;100.00;52154.59;4989421;28;20416;-65
2023/09/09 05:52:29;;;;;;;;;;;;;;;-144.99;100.00;52170.91;4986655;28;19966;-64
2023/09/09 05:54:56;;;;;;;;;;;;;;;-144.99;100.00;52203.50;4985906;28;19949;-64
2023/09/09 05:57:24;;;;;;;;;;;;;;;-144.99;100.00;52191.28;4994637;28;19954;-64
2023/09/09 05:59:51;;;;;;;;;;;;;;;-144.99;100.00;52170.91;4982907;28;19980;-63
2023/09/09 06:02:17;;;;;;;;;;;;;;;-144.99;100.00;52187.19;4988433;28;20996;-63
2023/09/09 06:04:44;;;;;;;;;;;;;;;-144.99;99.95;52174.97;4986256;28;20042;-62
2023/09/09 06:07:10;;;;;;;;;;;;;;;-144.99;99.11;52203.50;4987310;28;20675;-62
2023/09/09 06:09:37;;;;;;;;;;;;;;;-144.99;99.13;52223.88;4988401;28;20003;-63
2023/09/09 06:12:04;;;;;;;;;;;;;;;-144.99;98.93;52197.41;4989070;28;20632;-63
2023/09/09 06:14:32;;;;;;;;;;;;;;;-144.99;98.35;52158.66;4986476;28;20328;-63
2023/09/09 06:16:58;;;;;;;;;;;;;;;-144.99;98.05;52179.06;4986483;28;20080;-63
2023/09/09 06:19:25;;;;;;;;;;;;;;;-144.99;97.00;52181.09;4988815;28;20468;-65
2023/09/09 06:21:51;;;;;;;;;;;;;;;-144.99;96.63;52162.75;4989579;28;19995;-65
2023/09/09 06:24:17;;;;;;;;;;;;;;;-144.99;96.40;52183.13;4989220;28;20316;-65
2023/09/09 06:26:44;;;;;;;;;;;;;;;-144.99;95.71;52183.13;4988861;28;20011;-65
2023/09/09 06:29:10;;;;;;;;;;;;;;;-144.99;95.06;52126.06;4989595;28;19983;-65
2023/09/09 06:31:38;;;;;;;;;;;;;;;-144.99;94.36;52191.28;4988074;28;19933;-66
2023/09/09 06:34:05;;;;;;;;;;;;;;;-144.99;94.13;52146.44;4988730;28;19977;-65
2023/09/09 06:36:31;;;;;;;;;;;;;;;-144.99;93.71;52146.44;4989031;28;19962;-65
2023/09/09 06:38:58;;;;;;;;;;;;;;;-144.99;93.70;52142.38;4988445;28;19972;-65
2023/09/09 06:41:24;;;;;;;;;;;;;;;-144.99;93.30;52154.59;4988140;28;19941;-67
2023/09/09 06:43:51;;;;;;;;;;;;;;;-144.99;93.07;52146.44;4988133;28;19956;-66
2023/09/09 06:46:18;;;;;;;;;;;;;;;-144.99;92.46;52117.91;4987294;28;19992;-65
2023/09/09 06:48:46;;;;;;;;;;;;;;;-144.99;92.10;52162.75;4988263;28;19944;-66
2023/09/09 06:51:12;;;;;;;;;;;;;;;-144.99;92.14;52160.72;4988306;28;19972;-65
2023/09/09 06:53:39;;;;;;;;;;;;;;;-144.99;92.38;52174.97;4987586;28;20043;-66
2023/09/09 06:56:05;;;;;;;;;;;;;;;-144.99;92.19;52191.28;4988800;28;19995;-66
2023/09/09 06:58:32;;;;;;;;;;;;;;;-144.99;91.87;52148.47;4985316;28;20056;-66
2023/09/09 07:00:58;;;;;;;;;;;;;;;-144.99;91.61;52195.34;4986887;28;19945;-66
2023/09/09 07:03:25;;;;;;;;;;;;;;;-144.99;91.34;52170.91;4987770;28;20059;-65
2023/09/09 07:05:53;;;;;;;;;;;;;;;-144.99;91.09;52179.06;4986836;28;19948;-66
2023/09/09 07:08:19;;;;;;;;;;;;;;;-144.99;91.78;52146.44;4988056;28;19940;-66
2023/09/09 07:10:49;;;;;;;;;;;;;;;-144.99;90.78;52154.59;4988045;28;19948;-65
2023/09/09 07:13:16;;;;;;;;;;;;;;;-144.99;90.01;52160.72;4987685;28;19969;-66
2023/09/09 07:15:42;;;;;;;;;;;;;;;-144.99;90.21;52099.56;4983287;28;20335;-65
2023/09/09 07:18:09;;;;;;;;;;;;;;;-144.99;90.56;52134.22;4984869;28;20059;-67
2023/09/09 07:20:35;;;;;;;;;;;;;;;-144.99;90.33;52146.44;4985800;28;19983;-70
2023/09/09 07:23:03;;;;;;;;;;;;;;;-144.99;90.05;52162.75;4984396;28;20011;-70
2023/09/09 07:25:31;;;;;;;;;;;;;;;-144.99;89.16;52148.47;4987357;28;20014;-70
2023/09/09 07:27:57;;;;;;;;;;;;;;;-144.99;90.54;52162.75;4981440;28;19942;-70
2023/09/09 07:30:24;;;;;;;;;;;;;;;-144.99;89.00;52126.06;4981620;28;19942;-70
2023/09/09 07:32:50;;;;;;;;;;;;;;;-144.99;89.49;52138.28;4987752;28;20087;-70
2023/09/09 07:35:17;;;;;;;;;;;;;;;-144.99;88.53;52146.44;4983166;28;20016;-70
2023/09/09 07:37:43;;;;;;;;;;;;;;;-144.99;88.01;52154.59;4986215;28;19987;-70
2023/09/09 07:40:12;;;;;;;;;;;;;;;-144.99;86.92;52166.81;4981337;28;19946;-70
2023/09/09 07:42:38;;;;;;;;;;;;;;;-144.99;86.32;52113.84;4983793;28;19976;-70
2023/09/09 07:45:05;;;;;;;;;;;;;;;-144.99;85.50;52146.44;4985857;28;20473;-70
2023/09/09 07:47:31;;;;;;;;;;;;;;;-144.99;84.58;52140.31;4984585;28;19965;-71
2023/09/09 07:49:58;;;;;;;;;;;;;;;-144.99;86.42;52113.84;4982736;28;19945;-70
2023/09/09 07:52:25;;;;;;;;;;;;;;;-144.99;85.70;52093.44;4993065;28;19987;-70
2023/09/09 07:54:52;;;;;;;;;;;;;;;-144.99;85.52;52101.59;4981413;28;20020;-70
2023/09/09 07:57:20;;;;;;;;;;;;;;;-144.99;85.95;52124.03;4987743;28;20036;-70
2023/09/09 07:59:47;;;;;;;;;;;;;;;-144.99;85.58;52097.53;4983848;28;19996;-70
2023/09/09 08:02:14;;;;;;;;;;;;;;;-144.99;83.96;52099.56;4990235;28;19942;-70
2023/09/09 08:04:40;;;;;;;;;;;;;;;-144.99;83.18;52107.72;4983779;28;19966;-70
2023/09/09 08:07:07;;;;;;;;;;;;;;;-144.99;82.67;52105.69;4989592;28;20020;-70
2023/09/09 08:09:33;;;;;;;;;;;;;;;-144.99;82.53;52105.69;4987078;28;19956;-71
2023/09/09 08:12:00;;;;;;;;;;;;;;;-144.99;81.29;52073.06;4991172;28;20046;-70
2023/09/09 08:14:28;;;;;;;;;;;;;;;-144.99;80.64;52081.22;4991256;28;20361;-70
2023/09/09 08:16:55;;;;;;;;;;;;;;;-144.99;80.23;52069.00;4991215;28;19976;-70
2023/09/09 08:19:21;;;;;;;;;;;;;;;-144.99;80.03;52060.84;4990068;28;19946;-71
2023/09/09 08:21:48;;;;;;;;;;;;;;;-144.99;78.97;52105.69;4990542;28;19948;-71
2023/09/09 08:24:14;;;;;;;;;;;;;;;-144.99;78.20;52089.38;4991360;28;20002;-71
2023/09/09 08:26:41;;;;;;;;;;;;;;;-144.99;77.25;52075.09;4989925;28;20378;-71
2023/09/09 08:29:07;;;;;;;;;;;;;;;-144.99;76.29;52081.22;4995290;28;19981;-71
2023/09/09 08:31:35;;;;;;;;;;;;;;;-144.99;75.77;52052.69;4991797;28;19996;-71
2023/09/09 08:34:02;;;;;;;;;;;;;;;-144.99;75.14;52040.47;4990729;28;20410;-71
2023/09/09 08:36:28;;;;;;;;;;;;;;;-144.99;74.86;52038.44;4990244;28;19973;-71
2023/09/09 08:38:56;;;;;;;;;;;;;;;-144.99;73.77;52058.81;4989879;28;20049;-71
2023/09/09 08:41:27;;;;;;;;;;;;;;;-144.99;73.40;52075.09;4991187;28;20039;-71
2023/09/09 08:43:57;;;;;;;;;;;;;;;-144.99;73.32;52032.31;4990535;28;20043;-71
2023/09/09 08:46:23;;;;;;;;;;;;;;;-144.99;73.05;52028.22;4990577;28;19974;-71
2023/09/09 08:48:52;;;;;;;;;;;;;;;-144.99;72.45;51991.56;4989477;28;19945;-69
2023/09/09 08:51:19;;;;;;;;;;;;;;;-144.99;72.12;52083.25;4989241;28;20046;-69
2023/09/09 08:53:46;;;;;;;;;;;;;;;-144.99;71.98;52044.53;4989204;28;19966;-70
2023/09/09 08:56:13;;;;;;;;;;;;;;;-144.99;71.56;52056.78;4990928;28;20003;-70
2023/09/09 08:58:40;;;;;;;;;;;;;;;-144.99;71.02;52056.78;4986225;28;19946;-69
2023/09/09 09:01:07;;;;;;;;;;;;;;;-144.99;70.76;52034.34;4990466;28;19979;-69
2023/09/09 09:03:34;;;;;;;;;;;;;;;-144.99;70.45;52030.28;4989462;28;19970;-69
2023/09/09 09:06:03;;;;;;;;;;;;;;;-144.99;70.37;52048.63;4992160;28;19943;-69
2023/09/09 09:08:29;;;;;;;;;;;;;;;-144.99;70.48;52009.91;4991124;28;20434;-70
2023/09/09 09:10:56;;;;;;;;;;;;;;;-144.99;69.61;52064.91;4989263;28;19989;-69
2023/09/09 09:13:23;;;;;;;;;;;;;;;-144.99;69.11;52007.84;4989310;28;20047;-69
2023/09/09 09:15:49;;;;;;;;;;;;;;;-144.99;68.49;52040.47;4989988;28;19985;-69
2023/09/09 09:18:16;;;;;;;;;;;;;;;-144.99;68.37;52007.84;4984040;28;19950;-69
2023/09/09 09:20:42;;;;;;;;;;;;;;;-144.99;67.80;51983.41;4986223;28;20036;-69
2023/09/09 09:23:12;;;;;;;;;;;;;;;-144.99;67.22;51971.16;4989949;28;20000;-69
2023/09/09 09:25:41;;;;;;;;;;;;;;;-144.99;66.14;52007.84;4989903;28;19954;-69
2023/09/09 09:28:08;;;;;;;;;;;;;;;-144.99;66.02;51991.56;4990289;28;19949;-69
2023/09/09 09:30:35;;;;;;;;;;;;;;;-144.99;64.92;51958.94;4989071;28;20922;-69
2023/09/09 09:33:01;;;;;;;;;;;;;;;-144.99;64.01;52009.91;4987643;28;19998;-69
2023/09/09 09:35:28;;;;;;;;;;;;;;;-144.99;63.71;51967.09;4990131;28;19948;-69
2023/09/09 09:37:56;;;;;;;;;;;;;;;-144.99;64.12;51995.63;4989670;28;19993;-69
2023/09/09 09:40:24;;;;;;;;;;;;;;;-144.99;64.14;51971.16;4990825;28;20001;-70
2023/09/09 09:42:51;;;;;;;;;;;;;;;-144.99;63.59;51942.63;4988236;28;20039;-67
2023/09/09 09:45:18;;;;;;;;;;;;;;;-144.99;62.60;51950.78;4987880;28;19965;-68
2023/09/09 09:47:44;;;;;;;;;;;;;;;-144.99;62.24;51963.03;4989849;28;19981;-68
2023/09/09 09:50:22;;;;;;;;;;;;;;;-144.99;62.66;51971.16;4989514;28;20038;-68
2023/09/09 09:52:49;;;;;;;;;;;;;;;-144.99;61.88;51940.59;4985639;28;20029;-68
2023/09/09 09:55:19;;;;;;;;;;;;;;;-144.99;61.74;51956.91;4987738;28;20384;-69
2023/09/09 09:57:47;;;;;;;;;;;;;;;-144.99;60.93;51934.50;4989935;28;19985;-69
2023/09/09 10:00:15;;;;;;;;;;;;;;;-144.99;61.16;51946.72;4987295;28;20473;-64
2023/09/09 10:02:41;;;;;;;;;;;;;;;-144.99;60.55;51950.78;4989514;28;19965;-70
2023/09/09 10:05:09;;;;;;;;;;;;;;;-144.99;61.63;51973.22;4986925;28;20056;-70
2023/09/09 10:07:36;;;;;;;;;;;;;;;-144.99;61.32;52032.31;4989171;28;20016;-70
2023/09/09 10:10:07;;;;;;;;;;;;;;;-144.99;61.31;51979.31;4989826;28;20009;-70
2023/09/09 10:12:34;;;;;;;;;;;;;;;-144.99;61.87;51975.25;4988781;28;20476;-70
2023/09/09 10:15:03;;;;;;;;;;;;;;;-144.99;62.03;51963.03;4986661;28;19978;-70
2023/09/09 10:17:30;;;;;;;;;;;;;;;-144.99;62.02;51942.63;4987490;28;19975;-70
2023/09/09 10:19:56;;;;;;;;;;;;;;;-144.99;61.34;51950.78;4987728;28;19992;-71
2023/09/09 10:22:23;;;;;;;;;;;;;;;-144.99;60.75;51885.56;4994911;28;20031;-71
2023/09/09 10:24:50;;;;;;;;;;;;;;;-144.99;60.44;51901.88;4988194;28;20220;-71
2023/09/09 10:27:18;;;;;;;;;;;;;;;-144.99;59.92;51893.72;4987797;28;19941;-71
2023/09/09 10:29:45;;;;;;;;;;;;;;;-144.99;59.69;51832.59;4986929;28;19942;-71
2023/09/09 10:32:15;;;;;;;;;;;;;;;-144.99;58.86;51844.81;4988720;28;20024;-71
2023/09/09 10:34:43;;;;;;;;;;;;;;;-144.99;58.47;51810.16;4987060;28;20037;-71
2023/09/09 10:37:10;;;;;;;;;;;;;;;-144.99;57.89;51806.09;4985047;28;20046;-71
2023/09/09 10:39:36;;;;;;;;;;;;;;;-144.99;58.21;51824.44;4984448;28;20010;-70
2023/09/09 10:42:04;;;;;;;;;;;;;;;-144.99;57.67;51814.25;4985224;28;19944;-71
2023/09/09 10:44:30;;;;;;;;;;;;;;;-144.99;57.87;51771.44;4979503;28;19956;-71
2023/09/09 10:46:57;;;;;;;;;;;;;;;-144.99;56.50;51779.59;4981531;28;20434;-71
2023/09/09 10:49:27;;;;;;;;;;;;;;;-144.99;56.59;51757.19;4981113;28;20426;-71
2023/09/09 10:51:54;;;;;;;;;;;;;;;-144.99;56.11;51791.84;4981114;28;20318;-71
2023/09/09 10:54:22;;;;;;;;;;;;;;;-144.99;56.14;51769.41;4979767;28;19977;-71
2023/09/09 10:56:49;;;;;;;;;;;;;;;-144.99;55.82;51783.69;4981081;28;20392;-71
2023/09/09 10:59:17;;;;;;;;;;;;;;;-144.99;56.30;51771.44;4990466;28;19945;-72
2023/09/09 11:01:44;;;;;;;;;;;;;;;-144.99;55.55;51755.16;4986712;28;20017;-71
2023/09/09 11:04:18;;;;;;;;;;;;;;;-144.99;55.50;51736.81;4979652;28;20011;-71
2023/09/09 11:06:58;;;;;;;;;;;;;;;-144.99;55.46;51755.16;4979901;28;19987;-71
2023/09/09 11:09:28;;;;;;;;;;;;;;;-144.99;55.71;51747.00;4981122;28;20035;-72
2023/09/09 11:11:56;;;;;;;;;;;;;;;-144.99;56.56;51742.91;4980923;28;19990;-72
2023/09/09 11:14:22;;;;;;;;;;;;;;;-144.99;55.63;51763.31;4981523;28;19980;-71
2023/09/09 11:16:54;;;;;;;;;;;;;;;-144.99;55.93;51783.69;4981797;28;20359;-70
2023/09/09 11:19:23;;;;;;;;;;;;;;;-144.99;55.90;51759.22;4986506;28;19953;-72
2023/09/09 11:21:52;;;;;;;;;;;;;;;-144.99;56.58;51795.91;4985942;28;19949;-72
2023/09/09 11:24:19;;;;;;;;;;;;;;;-144.99;55.75;51763.31;4986321;28;20036;-72
2023/09/09 11:26:46;;;;;;;;;;;;;;;-144.99;54.95;51714.41;4975929;28;20195;-72
2023/09/09 11:29:13;;;;;;;;;;;;;;;-144.99;55.47;51722.53;4989063;28;19976;-72
2023/09/09 11:31:39;;;;;;;;;;;;;;;-144.99;55.22;51783.69;4983891;28;19929;-71
2023/09/09 11:34:06;;;;;;;;;;;;;;;-144.99;56.11;51775.53;4295839;28;10021867;-72
2023/09/09 11:36:33;;;;;;;;;;;;;;;-144.99;57.03;51804.06;4989988;28;19981;-71
2023/09/09 11:39:03;;;;;;;;;;;;;;;-144.99;56.14;51730.69;4990310;28;19980;-72
2023/09/09 11:41:31;;;;;;;;;;;;;;;-144.99;55.94;51726.63;4984197;28;19945;-72
2023/09/09 11:43:58;;;;;;;;;;;;;;;-144.99;54.29;51718.47;4980713;28;19958;-73
2023/09/09 11:46:25;;;;;;;;;;;;;;;-144.99;54.24;51722.53;4985384;28;20349;-72
2023/09/09 11:48:52;;;;;;;;;;;;;;;-144.99;53.45;51673.63;4988978;28;20354;-72
2023/09/09 11:51:19;;;;;;;;;;;;;;;-144.99;53.62;51665.50;4988785;28;19981;-72
2023/09/09 11:53:45;;;;;;;;;;;;;;;-144.99;53.52;51675.69;4988470;28;20085;-72
2023/09/09 11:56:14;;;;;;;;;;;;;;;-144.99;54.00;51698.09;4989556;28;20670;-71
2023/09/09 11:58:41;;;;;;;;;;;;;;;-144.99;53.81;51702.16;4981456;28;19963;-71
2023/09/09 12:01:07;;;;;;;;;;;;;;;-144.99;53.65;51740.88;4988518;28;20041;-72
2023/09/09 12:03:34;;;;;;;;;;;;;;;-144.99;53.46;51722.53;4983990;28;20458;-72
2023/09/09 12:06:02;;;;;;;;;;;;;;;-144.99;52.95;51689.94;4988663;28;20410;-73
2023/09/09 12:08:29;;;;;;;;;;;;;;;-144.99;52.56;51681.78;4988877;28;20005;-73
2023/09/09 12:10:57;;;;;;;;;;;;;;;-144.99;52.01;51653.25;4987848;28;20301;-72
2023/09/09 12:13:25;;;;;;;;;;;;;;;-144.99;51.77;51641.03;4994930;28;20054;-71
2023/09/09 12:15:51;;;;;;;;;;;;;;;-144.99;51.68;51636.97;4648572;28;9999824;-71
2023/09/09 12:18:18;;;;;;;;;;;;;;;-144.99;51.88;51624.72;4982703;28;19946;-72
2023/09/09 12:21:04;;;;;;;;;;;;;;;-144.99;52.23;51657.34;4986267;28;20058;-71
2023/09/09 12:23:31;;;;;;;;;;;;;;;-144.99;52.29;51649.19;4984248;28;19929;-71